createdAt,value
2022-12-18T00:00:07.937Z,37.50
2022-12-18T00:02:42.241Z,39.90
2022-12-18T00:05:10.820Z,36.00
2022-12-18T00:07:39.601Z,37.70
2022-12-18T00:10:09.001Z,36.37
2022-12-18T00:12:37.247Z,36.50
2022-12-18T00:15:07.978Z,36.83
2022-12-18T00:17:36.165Z,36.63
2022-12-18T00:20:04.770Z,37.13
2022-12-18T00:22:33.189Z,36.30
2022-12-18T00:25:01.468Z,36.03
2022-12-18T00:27:29.723Z,36.30
2022-12-18T00:29:57.962Z,37.53
2022-12-18T00:32:27.855Z,38.73
2022-12-18T00:34:56.076Z,36.80
2022-12-18T00:37:24.276Z,37.20
2022-12-18T00:39:52.955Z,36.10
2022-12-18T00:42:39.265Z,33.73
2022-12-18T00:45:12.661Z,35.30
2022-12-18T00:47:43.011Z,34.83
2022-12-18T00:50:11.985Z,36.63
2022-12-18T00:52:40.184Z,35.73
2022-12-18T00:55:09.013Z,34.77
2022-12-18T00:57:37.519Z,35.70
2022-12-18T01:00:06.993Z,34.80
2022-12-18T01:02:37.106Z,36.80
2022-12-18T01:05:08.010Z,38.20
2022-12-18T01:07:36.266Z,36.43
2022-12-18T01:10:06.093Z,36.73
2022-12-18T01:12:35.064Z,37.33
2022-12-18T01:15:03.277Z,37.20
2022-12-18T01:17:31.779Z,38.37
2022-12-18T01:20:02.402Z,35.17
2022-12-18T01:22:34.535Z,35.90
2022-12-18T01:25:03.268Z,35.03
2022-12-18T01:27:31.749Z,37.87
2022-12-18T01:30:00.041Z,35.53
2022-12-18T01:32:28.469Z,36.97
2022-12-18T01:34:57.620Z,37.17
2022-12-18T01:37:25.868Z,39.40
2022-12-18T01:39:56.559Z,36.63
2022-12-18T01:42:26.571Z,36.73
2022-12-18T01:45:01.608Z,34.77
2022-12-18T01:47:35.214Z,37.20
2022-12-18T01:50:08.171Z,35.17
2022-12-18T01:52:39.510Z,36.83
2022-12-18T01:55:11.351Z,36.40
2022-12-18T01:57:40.249Z,36.67
2022-12-18T02:00:18.127Z,37.53
2022-12-18T02:02:47.903Z,36.37
2022-12-18T02:05:19.735Z,36.23
2022-12-18T02:08:01.038Z,37.47
2022-12-18T02:10:38.238Z,38.13
2022-12-18T02:13:14.982Z,38.20
2022-12-18T02:15:49.133Z,38.13
2022-12-18T02:18:23.274Z,34.23
2022-12-18T02:20:57.598Z,35.27
2022-12-18T02:23:40.854Z,36.30
2022-12-18T02:26:19.862Z,36.33
2022-12-18T02:28:55.202Z,34.10
2022-12-18T02:31:28.079Z,35.57
2022-12-18T02:34:04.309Z,37.03
2022-12-18T02:36:40.360Z,34.20
2022-12-18T02:39:11.496Z,33.70
2022-12-18T02:41:47.144Z,36.10
2022-12-18T02:44:16.459Z,36.37
2022-12-18T02:46:47.618Z,36.73
2022-12-18T02:49:29.430Z,37.37
2022-12-18T02:52:07.617Z,33.93
2022-12-18T02:54:53.089Z,35.17
2022-12-18T02:57:33.222Z,33.90
2022-12-18T03:00:06.981Z,32.57
2022-12-18T03:02:41.617Z,34.23
2022-12-18T03:05:17.201Z,33.00
2022-12-18T03:07:53.066Z,34.77
2022-12-18T03:10:27.278Z,35.70
2022-12-18T03:13:02.662Z,35.13
2022-12-18T03:15:36.588Z,33.37
2022-12-18T03:18:15.221Z,32.97
2022-12-18T03:20:47.119Z,33.90
2022-12-18T03:23:28.578Z,35.27
2022-12-18T03:26:07.161Z,33.23
2022-12-18T03:28:42.677Z,34.13
2022-12-18T03:31:14.370Z,33.13
2022-12-18T03:33:48.686Z,33.70
2022-12-18T03:36:17.709Z,35.63
2022-12-18T03:38:46.139Z,33.97
2022-12-18T03:41:20.653Z,34.00
2022-12-18T03:44:15.989Z,34.13
2022-12-18T03:46:51.152Z,31.90
2022-12-18T03:49:28.148Z,32.73
2022-12-18T03:52:05.170Z,31.90
2022-12-18T03:54:36.730Z,34.07
2022-12-18T03:57:17.321Z,34.03
2022-12-18T03:59:49.462Z,34.00
2022-12-18T04:02:21.474Z,31.80
2022-12-18T04:04:52.716Z,32.73
2022-12-18T04:07:22.201Z,32.87
2022-12-18T04:09:53.003Z,32.57
2022-12-18T04:12:21.344Z,32.40
2022-12-18T04:14:51.730Z,33.13
2022-12-18T04:17:20.032Z,33.37
2022-12-18T04:19:48.892Z,31.73
2022-12-18T04:22:18.047Z,32.27
2022-12-18T04:24:49.809Z,32.23
2022-12-18T04:27:26.729Z,33.27
2022-12-18T04:29:56.444Z,32.67
2022-12-18T04:32:24.903Z,30.37
2022-12-18T04:34:53.617Z,31.27
2022-12-18T04:37:22.447Z,31.13
2022-12-18T04:39:52.252Z,32.27
2022-12-18T04:42:27.939Z,30.10
2022-12-18T04:44:57.601Z,28.97
2022-12-18T04:47:25.841Z,28.93
2022-12-18T04:49:54.156Z,30.30
2022-12-18T04:52:25.421Z,30.13
2022-12-18T04:54:53.973Z,29.43
2022-12-18T04:57:22.252Z,30.83
2022-12-18T04:59:50.568Z,28.43
2022-12-18T05:02:20.332Z,28.60
2022-12-18T05:04:48.799Z,27.23
2022-12-18T05:07:17.355Z,28.37
2022-12-18T05:09:45.721Z,28.90
2022-12-18T05:12:13.969Z,27.43
2022-12-18T05:14:42.244Z,27.90
2022-12-18T05:17:10.793Z,29.30
2022-12-18T05:19:40.484Z,28.83
2022-12-18T05:22:08.856Z,28.03
2022-12-18T05:24:37.238Z,28.80
2022-12-18T05:27:05.653Z,28.87
2022-12-18T05:29:34.062Z,30.33
2022-12-18T05:32:02.393Z,30.00
2022-12-18T05:34:30.834Z,28.47
2022-12-18T05:37:00.436Z,28.27
2022-12-18T05:39:28.835Z,28.03
2022-12-18T05:41:57.077Z,27.93
2022-12-18T05:44:25.602Z,27.27
2022-12-18T05:46:53.994Z,27.33
2022-12-18T05:49:22.321Z,28.57
2022-12-18T05:51:50.558Z,28.90
2022-12-18T05:54:20.257Z,30.03
2022-12-18T05:56:48.931Z,28.07
2022-12-18T05:59:17.612Z,27.23
2022-12-18T06:01:45.984Z,26.43
2022-12-18T06:04:14.666Z,26.57
2022-12-18T06:06:43.192Z,25.83
2022-12-18T06:09:12.626Z,27.47
2022-12-18T06:11:42.200Z,26.40
2022-12-18T06:14:11.857Z,28.33
2022-12-18T06:16:40.591Z,26.83
2022-12-18T06:19:08.994Z,26.13
2022-12-18T06:21:37.301Z,26.23
2022-12-18T06:24:05.953Z,25.27
2022-12-18T06:26:34.310Z,26.60
2022-12-18T06:29:04.260Z,24.93
2022-12-18T06:31:32.609Z,24.73
2022-12-18T06:34:01.027Z,26.33
2022-12-18T06:36:29.891Z,27.70
2022-12-18T06:38:59.557Z,27.70
2022-12-18T06:41:27.945Z,28.10
2022-12-18T06:43:59.702Z,26.77
2022-12-18T06:46:29.710Z,27.07
2022-12-18T06:48:57.979Z,26.67
2022-12-18T06:51:27.034Z,29.23
2022-12-18T06:53:55.358Z,27.33
2022-12-18T06:56:23.985Z,27.77
2022-12-18T06:58:52.268Z,29.20
2022-12-18T07:01:20.868Z,30.27
2022-12-18T07:03:55.223Z,29.83
2022-12-18T07:06:26.389Z,35.50
2022-12-18T07:08:56.323Z,29.73
2022-12-18T07:11:25.409Z,33.57
2022-12-18T07:13:55.537Z,25.87
2022-12-18T07:16:26.408Z,28.50
2022-12-18T07:18:57.637Z,29.63
2022-12-18T07:21:26.832Z,28.83
2022-12-18T07:23:55.406Z,27.43
2022-12-18T07:26:24.742Z,27.93
2022-12-18T07:28:56.898Z,36.53
2022-12-18T07:31:25.563Z,26.77
2022-12-18T07:33:55.772Z,26.17
2022-12-18T07:36:24.599Z,31.77
2022-12-18T07:38:53.836Z,25.47
2022-12-18T07:41:22.731Z,25.83
2022-12-18T07:43:51.348Z,25.33
2022-12-18T07:46:19.837Z,26.33
2022-12-18T07:48:49.443Z,24.53
2022-12-18T07:51:20.457Z,26.87
2022-12-18T07:53:52.254Z,24.23
2022-12-18T07:56:30.546Z,29.10
2022-12-18T07:59:00.644Z,22.87
2022-12-18T08:01:32.400Z,23.80
2022-12-18T08:04:00.850Z,29.60
2022-12-18T08:06:30.580Z,24.63
2022-12-18T08:08:59.060Z,24.43
2022-12-18T08:11:28.897Z,24.00
2022-12-18T08:13:58.108Z,23.30
2022-12-18T08:16:27.142Z,23.90
2022-12-18T08:18:56.107Z,24.37
2022-12-18T08:21:26.316Z,24.63
2022-12-18T08:23:58.298Z,25.63
2022-12-18T08:26:29.050Z,25.33
2022-12-18T08:28:58.908Z,28.50
2022-12-18T08:31:28.407Z,24.00
2022-12-18T08:33:56.818Z,25.50
2022-12-18T08:36:27.017Z,26.30
2022-12-18T08:38:56.896Z,30.77
2022-12-18T08:41:25.190Z,27.90
2022-12-18T08:44:11.212Z,28.10
2022-12-18T08:46:41.238Z,26.67
2022-12-18T08:49:10.984Z,25.47
2022-12-18T08:51:40.369Z,24.83
2022-12-18T08:54:12.841Z,26.67
2022-12-18T08:56:41.265Z,24.37
2022-12-18T08:59:17.368Z,26.70
2022-12-18T09:01:48.290Z,29.13
2022-12-18T09:04:18.435Z,26.63
2022-12-18T09:06:47.441Z,25.83
2022-12-18T09:09:17.080Z,26.90
2022-12-18T09:11:45.624Z,28.03
2022-12-18T09:14:13.923Z,26.17
2022-12-18T09:16:42.409Z,26.50
2022-12-18T09:19:12.396Z,23.77
2022-12-18T09:21:46.128Z,25.27
2022-12-18T09:24:18.164Z,25.63
2022-12-18T09:26:47.371Z,80.23
2022-12-18T09:29:16.785Z,60.30
2022-12-18T09:31:47.292Z,27.27
2022-12-18T09:34:15.567Z,28.27
2022-12-18T09:36:43.981Z,26.73
2022-12-18T09:39:12.259Z,26.10
2022-12-18T09:41:48.262Z,31.52
2022-12-18T09:44:23.572Z,29.93
2022-12-18T09:47:00.719Z,27.20
2022-12-18T09:49:32.519Z,29.20
2022-12-18T09:52:06.575Z,27.17
2022-12-18T09:54:39.905Z,26.97
2022-12-18T09:57:16.303Z,26.73
2022-12-18T09:59:48.014Z,32.67
2022-12-18T10:02:18.490Z,38.03
2022-12-18T10:04:55.293Z,28.53
2022-12-18T10:07:31.704Z,28.37
2022-12-18T10:10:08.324Z,27.90
2022-12-18T10:12:44.793Z,31.97
2022-12-18T10:15:21.804Z,27.97
2022-12-18T10:17:58.828Z,48.20
2022-12-18T10:20:34.732Z,33.33
2022-12-18T10:23:11.467Z,29.67
2022-12-18T10:25:48.000Z,44.20
2022-12-18T10:28:21.114Z,59.43
2022-12-18T10:30:49.435Z,31.50
2022-12-18T10:33:20.239Z,28.43
2022-12-18T10:35:51.019Z,28.30
2022-12-18T10:38:25.458Z,28.40
2022-12-18T10:40:55.934Z,28.30
2022-12-18T10:43:29.329Z,28.57
2022-12-18T10:46:16.780Z,30.60
2022-12-18T10:48:56.714Z,28.70
2022-12-18T10:51:30.620Z,25.93
2022-12-18T10:54:02.974Z,25.63
2022-12-18T10:56:35.464Z,26.73
2022-12-18T10:59:07.191Z,26.80
2022-12-18T11:01:52.282Z,26.47
2022-12-18T11:04:23.663Z,28.40
2022-12-18T11:07:00.992Z,27.60
2022-12-18T11:09:30.956Z,26.27
2022-12-18T11:12:01.346Z,27.83
2022-12-18T11:14:34.663Z,26.77
2022-12-18T11:17:24.762Z,26.53
2022-12-18T11:19:56.462Z,30.77
2022-12-18T11:22:28.748Z,28.07
2022-12-18T11:27:54.758Z,26.20
2022-12-18T11:30:27.337Z,28.90
2022-12-18T11:32:59.114Z,28.33
2022-12-18T11:35:39.131Z,27.13
2022-12-18T11:38:14.873Z,28.17
2022-12-18T11:40:47.565Z,28.73
2022-12-18T11:43:21.961Z,28.13
2022-12-18T11:45:56.582Z,27.07
2022-12-18T11:48:29.053Z,27.70
2022-12-18T11:50:59.047Z,25.97
2022-12-18T11:53:29.194Z,27.07
2022-12-18T11:56:08.628Z,27.50
2022-12-18T11:58:46.993Z,28.50
2022-12-18T12:01:29.488Z,27.23
2022-12-18T12:04:28.182Z,26.93
2022-12-18T12:07:05.304Z,26.47
2022-12-18T12:09:42.331Z,28.47
2022-12-18T12:12:28.525Z,28.07
2022-12-18T12:15:05.222Z,26.60
2022-12-18T12:17:40.313Z,26.73
2022-12-18T12:20:16.627Z,31.27
2022-12-18T12:22:55.400Z,28.63
2022-12-18T12:25:34.083Z,30.27
2022-12-18T12:28:15.425Z,31.83
2022-12-18T12:30:54.665Z,50.30
2022-12-18T12:33:38.392Z,44.77
2022-12-18T12:36:16.376Z,33.87
2022-12-18T12:38:52.259Z,33.57
2022-12-18T12:41:42.752Z,33.60
2022-12-18T12:44:17.360Z,31.33
2022-12-18T12:46:46.827Z,43.87
2022-12-18T12:49:19.630Z,34.27
2022-12-18T12:51:54.632Z,75.23
2022-12-18T12:54:26.814Z,43.80
2022-12-18T12:57:02.511Z,37.10
2022-12-18T12:59:37.604Z,59.77
2022-12-18T13:02:16.930Z,43.63
2022-12-18T13:04:51.947Z,87.73
2022-12-18T13:07:28.301Z,61.47
2022-12-18T13:10:27.186Z,33.00
2022-12-18T13:12:57.078Z,29.63
2022-12-18T13:15:31.054Z,29.93
2022-12-18T13:18:19.028Z,30.23
2022-12-18T13:20:56.356Z,30.97
2022-12-18T13:23:32.767Z,31.80
2022-12-18T13:26:01.977Z,30.53
2022-12-18T13:28:54.755Z,31.47
2022-12-18T13:32:09.194Z,30.03
2022-12-18T13:34:38.519Z,38.93
2022-12-18T13:37:42.134Z,32.77
2022-12-18T13:40:53.641Z,34.57
2022-12-18T13:43:30.615Z,30.23
2022-12-18T13:46:24.133Z,31.30
2022-12-18T13:49:00.253Z,29.73
2022-12-18T13:51:29.792Z,31.57
2022-12-18T13:54:02.651Z,32.27
2022-12-18T13:56:34.477Z,32.73
2022-12-18T13:59:15.941Z,31.30
2022-12-18T14:01:51.090Z,32.17
2022-12-18T14:04:28.800Z,31.67
2022-12-18T14:07:05.233Z,32.27
2022-12-18T14:09:40.458Z,33.90
2022-12-18T14:12:34.731Z,31.87
2022-12-18T14:15:03.770Z,31.40
2022-12-18T14:17:33.953Z,32.20
2022-12-18T14:20:03.213Z,32.20
2022-12-18T14:22:32.949Z,33.10
2022-12-18T14:25:17.848Z,32.40
2022-12-18T14:27:48.601Z,33.80
2022-12-18T14:30:28.843Z,34.20
2022-12-18T14:33:08.341Z,33.37
2022-12-18T14:35:38.730Z,33.97
2022-12-18T14:38:23.423Z,35.77
2022-12-18T14:41:00.176Z,37.10
2022-12-18T14:43:29.496Z,33.47
2022-12-18T14:45:58.539Z,32.97
2022-12-18T14:48:37.380Z,34.77
2022-12-18T14:51:08.473Z,36.67
2022-12-18T14:53:40.250Z,34.43
2022-12-18T14:56:21.814Z,36.63
2022-12-18T14:58:52.037Z,36.57
2022-12-18T15:01:23.979Z,35.77
2022-12-18T15:03:53.568Z,35.87
2022-12-18T15:06:34.205Z,38.63
2022-12-18T15:09:05.114Z,40.90
2022-12-18T15:11:47.630Z,40.67
2022-12-18T15:14:33.380Z,37.20
2022-12-18T15:17:03.809Z,35.83
2022-12-18T15:19:39.390Z,41.80
2022-12-18T15:22:20.588Z,39.63
2022-12-18T15:24:50.865Z,41.20
2022-12-18T15:27:31.147Z,40.53
2022-12-18T15:30:20.231Z,40.43
2022-12-18T15:32:49.936Z,39.13
2022-12-18T15:35:21.605Z,37.30
2022-12-18T15:37:50.829Z,38.20
2022-12-18T15:40:20.969Z,37.37
2022-12-18T15:43:11.086Z,37.00
2022-12-18T15:45:39.273Z,37.87
2022-12-18T15:48:20.426Z,37.03
2022-12-18T15:50:49.122Z,39.97
2022-12-18T15:53:17.561Z,40.43
2022-12-18T15:56:03.260Z,37.30
2022-12-18T15:58:33.851Z,36.40
2022-12-18T16:01:03.320Z,38.53
2022-12-18T16:03:31.771Z,38.30
2022-12-18T16:06:04.044Z,39.43
2022-12-18T16:08:33.524Z,37.23
2022-12-18T16:11:02.320Z,37.67
2022-12-18T16:13:32.434Z,39.43
2022-12-18T16:16:01.317Z,41.53
2022-12-18T16:18:29.755Z,36.87
2022-12-18T16:20:58.049Z,38.87
2022-12-18T16:23:26.464Z,37.97
2022-12-18T16:25:54.967Z,36.53
2022-12-18T16:28:23.812Z,36.57
2022-12-18T16:30:53.678Z,43.93
2022-12-18T16:33:22.142Z,38.87
2022-12-18T16:35:54.647Z,37.77
2022-12-18T16:38:23.112Z,41.30
2022-12-18T16:41:09.159Z,38.83
2022-12-18T16:43:37.564Z,39.57
2022-12-18T16:46:07.404Z,38.47
2022-12-18T16:48:36.064Z,39.57
2022-12-18T16:51:06.371Z,37.60
2022-12-18T16:53:35.142Z,38.53
2022-12-18T16:56:04.662Z,37.57
2022-12-18T16:58:35.152Z,37.57
2022-12-18T17:01:11.103Z,41.23
2022-12-18T17:03:40.065Z,41.90
2022-12-18T17:06:09.160Z,42.57
2022-12-18T17:08:37.405Z,45.20
2022-12-18T17:11:07.153Z,40.73
2022-12-18T17:13:35.803Z,41.07
2022-12-18T17:16:06.391Z,41.77
2022-12-18T17:18:36.507Z,38.90
2022-12-18T17:21:06.398Z,53.50
2022-12-18T17:23:34.701Z,40.87
2022-12-18T17:26:03.206Z,61.40
2022-12-18T17:28:32.398Z,43.60
2022-12-18T17:31:01.458Z,38.77
2022-12-18T17:33:29.960Z,43.27
2022-12-18T17:36:01.198Z,49.10
2022-12-18T17:38:29.660Z,37.00
2022-12-18T17:41:02.797Z,38.87
2022-12-18T17:43:31.645Z,39.50
2022-12-18T17:46:03.561Z,39.70
2022-12-18T17:48:32.667Z,39.63
2022-12-18T17:51:04.643Z,37.13
2022-12-18T17:53:33.118Z,37.23
2022-12-18T17:56:05.670Z,39.93
2022-12-18T17:58:35.662Z,38.10
2022-12-18T18:01:04.909Z,37.43
2022-12-18T18:03:34.046Z,38.87
2022-12-18T18:06:03.906Z,37.63
2022-12-18T18:08:32.673Z,36.30
2022-12-18T18:11:19.668Z,39.43
2022-12-18T18:14:03.190Z,37.33
2022-12-18T18:16:34.315Z,36.87
2022-12-18T18:19:05.564Z,37.37
2022-12-18T18:21:36.367Z,36.23
2022-12-18T18:24:06.083Z,37.07
2022-12-18T18:26:36.100Z,36.90
2022-12-18T18:29:06.501Z,38.70
2022-12-18T18:31:36.437Z,38.77
2022-12-18T18:34:09.899Z,37.37
2022-12-18T18:36:39.644Z,38.70
2022-12-18T18:39:08.993Z,37.70
2022-12-18T18:41:39.058Z,40.43
2022-12-18T18:44:08.163Z,40.93
2022-12-18T18:46:36.952Z,49.03
2022-12-18T18:49:05.895Z,91.10
2022-12-18T18:51:35.223Z,157.57
2022-12-18T18:54:05.620Z,83.57
2022-12-18T18:56:56.205Z,40.10
2022-12-18T18:59:29.134Z,84.33
2022-12-18T19:02:04.637Z,43.00
2022-12-18T19:04:33.678Z,50.10
2022-12-18T19:07:02.058Z,42.60
2022-12-18T19:09:32.342Z,48.63
2022-12-18T19:12:18.005Z,44.27
2022-12-18T19:14:47.060Z,36.83
2022-12-18T19:17:16.325Z,35.70
2022-12-18T19:19:45.347Z,36.70
2022-12-18T19:22:14.157Z,36.60
2022-12-18T19:24:44.381Z,36.60
2022-12-18T19:27:12.717Z,35.17
2022-12-18T19:29:41.198Z,40.50
2022-12-18T19:32:10.305Z,37.20
2022-12-18T19:34:40.669Z,39.00
2022-12-18T19:37:09.469Z,39.30
2022-12-18T19:39:37.892Z,37.80
2022-12-18T19:42:07.731Z,39.90
2022-12-18T19:44:36.183Z,43.13
2022-12-18T19:47:04.502Z,40.87
2022-12-18T19:49:32.904Z,45.17
2022-12-18T19:52:02.112Z,40.70
2022-12-18T19:54:31.021Z,40.23
2022-12-18T19:56:59.824Z,39.47
2022-12-18T19:59:29.588Z,43.27
2022-12-18T20:01:58.058Z,43.30
2022-12-18T20:04:26.482Z,42.00
2022-12-18T20:06:56.030Z,41.47
2022-12-18T20:09:24.819Z,42.57
2022-12-18T20:11:53.550Z,40.47
2022-12-18T20:14:23.589Z,42.77
2022-12-18T20:16:54.238Z,44.10
2022-12-18T20:19:23.328Z,46.47
2022-12-18T20:21:51.914Z,40.60
2022-12-18T20:24:20.401Z,40.63
2022-12-18T20:26:48.992Z,38.53
2022-12-18T20:29:17.498Z,41.47
2022-12-18T20:31:46.533Z,41.70
2022-12-18T20:34:16.353Z,40.00
2022-12-18T20:36:45.704Z,39.83
2022-12-18T20:39:15.232Z,40.77
2022-12-18T20:41:44.227Z,42.87
2022-12-18T20:44:22.662Z,40.57
2022-12-18T20:46:58.006Z,40.63
2022-12-18T20:49:28.534Z,38.57
2022-12-18T20:51:58.616Z,39.10
2022-12-18T20:54:28.606Z,37.47
2022-12-18T20:56:57.290Z,37.60
2022-12-18T20:59:26.286Z,43.97
2022-12-18T21:01:54.790Z,38.47
2022-12-18T21:04:24.491Z,52.20
2022-12-18T21:06:57.803Z,39.07
2022-12-18T21:09:37.538Z,41.53
2022-12-18T21:12:29.275Z,37.30
2022-12-18T21:14:59.558Z,37.87
2022-12-18T21:17:28.159Z,39.70
2022-12-18T21:19:57.203Z,37.47
2022-12-18T21:22:27.657Z,38.90
2022-12-18T21:24:56.019Z,36.87
2022-12-18T21:27:24.278Z,37.93
2022-12-18T21:29:53.348Z,39.13
2022-12-18T21:32:21.650Z,39.07
2022-12-18T21:34:53.049Z,38.43
2022-12-18T21:37:21.307Z,40.37
2022-12-18T21:39:50.945Z,40.37
2022-12-18T21:42:36.736Z,41.47
2022-12-18T21:45:05.653Z,39.30
2022-12-18T21:47:34.237Z,39.37
2022-12-18T21:50:02.489Z,40.03
2022-12-18T21:52:32.083Z,38.67
2022-12-18T21:55:08.423Z,41.30
2022-12-18T21:57:39.204Z,39.13
2022-12-18T22:00:19.339Z,37.67
2022-12-18T22:03:00.503Z,38.60
2022-12-18T22:05:37.561Z,41.67
2022-12-18T22:08:07.062Z,40.80
2022-12-18T22:10:37.206Z,37.03
2022-12-18T22:13:06.128Z,39.70
2022-12-18T22:15:34.810Z,38.90
2022-12-18T22:18:03.236Z,40.20
2022-12-18T22:20:31.514Z,39.23
2022-12-18T22:23:04.391Z,39.67
2022-12-18T22:25:38.952Z,39.17
2022-12-18T22:28:26.005Z,39.73
2022-12-18T22:30:58.977Z,41.83
2022-12-18T22:33:28.772Z,39.77
2022-12-18T22:35:57.223Z,41.00
2022-12-18T22:38:25.482Z,39.90
2022-12-18T22:40:56.093Z,39.73
2022-12-18T22:43:24.353Z,41.77
2022-12-18T22:45:52.614Z,87.40
2022-12-18T22:48:21.022Z,50.23
2022-12-18T22:50:49.587Z,48.93
2022-12-18T22:53:19.484Z,39.33
2022-12-18T22:55:48.081Z,44.70
2022-12-18T22:58:17.765Z,42.40
2022-12-18T23:00:46.040Z,45.47
2022-12-18T23:03:14.545Z,41.30
2022-12-18T23:05:43.189Z,43.43
2022-12-18T23:08:11.506Z,71.67
2022-12-18T23:10:40.412Z,97.33
2022-12-18T23:13:09.079Z,103.63
2022-12-18T23:15:42.598Z,54.07
2022-12-18T23:18:11.204Z,45.07
2022-12-18T23:20:39.588Z,44.67
2022-12-18T23:23:08.677Z,38.93
2022-12-18T23:25:36.929Z,43.57
2022-12-18T23:28:05.603Z,43.10
2022-12-18T23:30:34.162Z,40.13
2022-12-18T23:33:04.038Z,40.00
2022-12-18T23:35:32.939Z,39.27
2022-12-18T23:38:01.274Z,40.30
2022-12-18T23:40:30.612Z,50.17
2022-12-18T23:43:00.443Z,41.17
2022-12-18T23:45:29.025Z,40.07
2022-12-18T23:47:57.457Z,40.20
2022-12-18T23:50:30.006Z,40.60
2022-12-18T23:53:04.601Z,40.80
2022-12-18T23:55:34.241Z,39.87
2022-12-18T23:58:02.830Z,40.00
